sensor_id;sensor_type;location;lat;lon;timestamp;P1;durP1;ratioP1;P2;durP2;ratioP2
37411;SDS011;23278;52.110;6.050;2023-04-24T00:00:14;7.28;;;4.97;;
37411;SDS011;23278;52.110;6.050;2023-04-24T00:02:41;7.25;;;6.28;;
37411;SDS011;23278;52.110;6.050;2023-04-24T00:05:10;7.40;;;5.82;;
37411;SDS011;23278;52.110;6.050;2023-04-24T00:07:37;6.25;;;5.65;;
37411;SDS011;23278;52.110;6.050;2023-04-24T00:10:03;6.43;;;5.82;;
37411;SDS011;23278;52.110;6.050;2023-04-24T00:12:29;6.53;;;5.45;;
37411;SDS011;23278;52.110;6.050;2023-04-24T00:14:55;7.05;;;6.35;;
37411;SDS011;23278;52.110;6.050;2023-04-24T00:17:21;9.63;;;6.07;;
37411;SDS011;23278;52.110;6.050;2023-04-24T00:19:47;8.55;;;5.88;;
37411;SDS011;23278;52.110;6.050;2023-04-24T00:22:13;7.57;;;6.57;;
37411;SDS011;23278;52.110;6.050;2023-04-24T00:24:40;7.68;;;6.50;;
37411;SDS011;23278;52.110;6.050;2023-04-24T00:27:06;6.72;;;5.38;;
37411;SDS011;23278;52.110;6.050;2023-04-24T00:29:32;6.55;;;5.82;;
37411;SDS011;23278;52.110;6.050;2023-04-24T00:31:57;8.27;;;5.60;;
37411;SDS011;23278;52.110;6.050;2023-04-24T00:34:23;6.88;;;6.07;;
37411;SDS011;23278;52.110;6.050;2023-04-24T00:36:49;6.43;;;5.82;;
37411;SDS011;23278;52.110;6.050;2023-04-24T00:39:20;6.88;;;5.53;;
37411;SDS011;23278;52.110;6.050;2023-04-24T00:41:48;5.45;;;4.95;;
37411;SDS011;23278;52.110;6.050;2023-04-24T00:44:16;7.00;;;5.72;;
37411;SDS011;23278;52.110;6.050;2023-04-24T00:46:42;6.07;;;5.55;;
37411;SDS011;23278;52.110;6.050;2023-04-24T00:49:08;5.75;;;5.13;;
37411;SDS011;23278;52.110;6.050;2023-04-24T00:51:34;5.82;;;5.25;;
37411;SDS011;23278;52.110;6.050;2023-04-24T00:54:02;5.20;;;4.38;;
37411;SDS011;23278;52.110;6.050;2023-04-24T00:56:28;5.32;;;4.93;;
37411;SDS011;23278;52.110;6.050;2023-04-24T00:58:54;5.53;;;3.60;;
37411;SDS011;23278;52.110;6.050;2023-04-24T01:01:21;3.95;;;3.60;;
37411;SDS011;23278;52.110;6.050;2023-04-24T01:03:48;3.50;;;3.20;;
37411;SDS011;23278;52.110;6.050;2023-04-24T01:06:16;3.80;;;3.22;;
37411;SDS011;23278;52.110;6.050;2023-04-24T01:08:43;3.38;;;2.83;;
37411;SDS011;23278;52.110;6.050;2023-04-24T01:11:12;4.10;;;2.63;;
37411;SDS011;23278;52.110;6.050;2023-04-24T01:13:38;2.63;;;2.28;;
37411;SDS011;23278;52.110;6.050;2023-04-24T01:16:05;2.08;;;1.83;;
37411;SDS011;23278;52.110;6.050;2023-04-24T01:18:33;3.13;;;1.85;;
37411;SDS011;23278;52.110;6.050;2023-04-24T01:20:59;3.08;;;2.83;;
37411;SDS011;23278;52.110;6.050;2023-04-24T01:23:30;5.13;;;2.83;;
37411;SDS011;23278;52.110;6.050;2023-04-24T01:25:56;4.28;;;3.67;;
37411;SDS011;23278;52.110;6.050;2023-04-24T01:28:24;4.53;;;4.10;;
37411;SDS011;23278;52.110;6.050;2023-04-24T01:30:51;3.83;;;3.53;;
37411;SDS011;23278;52.110;6.050;2023-04-24T01:33:21;4.78;;;4.28;;
37411;SDS011;23278;52.110;6.050;2023-04-24T01:35:48;4.22;;;2.47;;
37411;SDS011;23278;52.110;6.050;2023-04-24T01:38:14;4.13;;;2.05;;
37411;SDS011;23278;52.110;6.050;2023-04-24T01:40:40;2.95;;;2.22;;
37411;SDS011;23278;52.110;6.050;2023-04-24T01:43:06;2.20;;;1.60;;
37411;SDS011;23278;52.110;6.050;2023-04-24T01:45:32;2.78;;;1.23;;
37411;SDS011;23278;52.110;6.050;2023-04-24T01:47:58;2.88;;;1.13;;
37411;SDS011;23278;52.110;6.050;2023-04-24T01:50:25;1.88;;;1.05;;
37411;SDS011;23278;52.110;6.050;2023-04-24T01:52:51;1.40;;;1.00;;
37411;SDS011;23278;52.110;6.050;2023-04-24T01:55:17;2.45;;;1.00;;
37411;SDS011;23278;52.110;6.050;2023-04-24T01:57:44;1.52;;;1.10;;
37411;SDS011;23278;52.110;6.050;2023-04-24T02:00:10;1.92;;;1.50;;
37411;SDS011;23278;52.110;6.050;2023-04-24T02:02:40;1.80;;;1.58;;
37411;SDS011;23278;52.110;6.050;2023-04-24T02:05:06;2.45;;;1.70;;
37411;SDS011;23278;52.110;6.050;2023-04-24T02:07:36;5.60;;;2.70;;
37411;SDS011;23278;52.110;6.050;2023-04-24T02:10:02;3.78;;;2.97;;
37411;SDS011;23278;52.110;6.050;2023-04-24T02:12:30;2.92;;;2.60;;
37411;SDS011;23278;52.110;6.050;2023-04-24T02:14:55;4.22;;;2.97;;
37411;SDS011;23278;52.110;6.050;2023-04-24T02:17:21;2.92;;;2.58;;
37411;SDS011;23278;52.110;6.050;2023-04-24T02:19:47;6.68;;;3.63;;
37411;SDS011;23278;52.110;6.050;2023-04-24T02:22:14;3.80;;;3.10;;
37411;SDS011;23278;52.110;6.050;2023-04-24T02:24:40;3.08;;;2.53;;
37411;SDS011;23278;52.110;6.050;2023-04-24T02:27:06;4.22;;;2.72;;
37411;SDS011;23278;52.110;6.050;2023-04-24T02:29:32;2.97;;;2.10;;
37411;SDS011;23278;52.110;6.050;2023-04-24T02:31:58;5.03;;;2.63;;
37411;SDS011;23278;52.110;6.050;2023-04-24T02:34:24;2.33;;;1.65;;
37411;SDS011;23278;52.110;6.050;2023-04-24T02:36:50;3.85;;;2.00;;
37411;SDS011;23278;52.110;6.050;2023-04-24T02:39:16;2.28;;;2.03;;
37411;SDS011;23278;52.110;6.050;2023-04-24T02:41:42;3.60;;;3.00;;
37411;SDS011;23278;52.110;6.050;2023-04-24T02:44:09;5.38;;;2.88;;
37411;SDS011;23278;52.110;6.050;2023-04-24T02:46:35;3.90;;;3.30;;
37411;SDS011;23278;52.110;6.050;2023-04-24T02:49:01;3.63;;;3.33;;
37411;SDS011;23278;52.110;6.050;2023-04-24T02:51:28;5.40;;;3.65;;
37411;SDS011;23278;52.110;6.050;2023-04-24T02:53:55;4.40;;;3.97;;
37411;SDS011;23278;52.110;6.050;2023-04-24T02:56:20;5.32;;;4.40;;
37411;SDS011;23278;52.110;6.050;2023-04-24T02:58:46;8.25;;;4.53;;
37411;SDS011;23278;52.110;6.050;2023-04-24T03:01:12;5.32;;;4.38;;
37411;SDS011;23278;52.110;6.050;2023-04-24T03:03:38;5.45;;;4.43;;
37411;SDS011;23278;52.110;6.050;2023-04-24T03:06:05;5.18;;;4.68;;
37411;SDS011;23278;52.110;6.050;2023-04-24T03:08:31;5.43;;;4.53;;
37411;SDS011;23278;52.110;6.050;2023-04-24T03:10:57;5.50;;;4.35;;
37411;SDS011;23278;52.110;6.050;2023-04-24T03:13:23;4.70;;;4.18;;
37411;SDS011;23278;52.110;6.050;2023-04-24T03:15:49;5.15;;;3.85;;
37411;SDS011;23278;52.110;6.050;2023-04-24T03:18:15;5.45;;;3.88;;
37411;SDS011;23278;52.110;6.050;2023-04-24T03:20:42;4.88;;;4.38;;
37411;SDS011;23278;52.110;6.050;2023-04-24T03:23:08;8.48;;;4.28;;
37411;SDS011;23278;52.110;6.050;2023-04-24T03:25:35;5.93;;;4.80;;
37411;SDS011;23278;52.110;6.050;2023-04-24T03:28:02;7.85;;;6.05;;
37411;SDS011;23278;52.110;6.050;2023-04-24T03:30:35;6.03;;;5.38;;
37411;SDS011;23278;52.110;6.050;2023-04-24T03:33:03;8.75;;;7.45;;
37411;SDS011;23278;52.110;6.050;2023-04-24T03:35:32;11.50;;;8.93;;
37411;SDS011;23278;52.110;6.050;2023-04-24T03:38:01;13.05;;;9.52;;
37411;SDS011;23278;52.110;6.050;2023-04-24T03:40:49;11.65;;;10.02;;
37411;SDS011;23278;52.110;6.050;2023-04-24T03:43:28;11.55;;;9.00;;
37411;SDS011;23278;52.110;6.050;2023-04-24T03:45:57;11.82;;;8.32;;
37411;SDS011;23278;52.110;6.050;2023-04-24T03:48:24;8.50;;;7.55;;
37411;SDS011;23278;52.110;6.050;2023-04-24T03:50:50;8.80;;;7.32;;
37411;SDS011;23278;52.110;6.050;2023-04-24T03:53:16;8.02;;;7.07;;
37411;SDS011;23278;52.110;6.050;2023-04-24T03:55:43;10.02;;;7.78;;
37411;SDS011;23278;52.110;6.050;2023-04-24T03:58:09;8.85;;;7.75;;
37411;SDS011;23278;52.110;6.050;2023-04-24T04:00:36;8.50;;;7.60;;
37411;SDS011;23278;52.110;6.050;2023-04-24T04:03:31;9.45;;;7.68;;
37411;SDS011;23278;52.110;6.050;2023-04-24T04:05:57;10.77;;;9.23;;
37411;SDS011;23278;52.110;6.050;2023-04-24T04:08:23;13.65;;;11.93;;
37411;SDS011;23278;52.110;6.050;2023-04-24T04:10:49;16.10;;;11.10;;
37411;SDS011;23278;52.110;6.050;2023-04-24T04:13:15;18.88;;;12.27;;
37411;SDS011;23278;52.110;6.050;2023-04-24T04:15:41;18.58;;;14.93;;
37411;SDS011;23278;52.110;6.050;2023-04-24T04:18:07;21.58;;;16.08;;
37411;SDS011;23278;52.110;6.050;2023-04-24T04:20:34;28.98;;;18.55;;
37411;SDS011;23278;52.110;6.050;2023-04-24T04:23:00;26.40;;;19.52;;
37411;SDS011;23278;52.110;6.050;2023-04-24T04:25:37;31.05;;;23.08;;
37411;SDS011;23278;52.110;6.050;2023-04-24T04:28:03;26.40;;;20.33;;
37411;SDS011;23278;52.110;6.050;2023-04-24T04:30:30;35.13;;;22.00;;
37411;SDS011;23278;52.110;6.050;2023-04-24T04:33:02;34.50;;;23.50;;
37411;SDS011;23278;52.110;6.050;2023-04-24T04:35:29;33.92;;;25.25;;
37411;SDS011;23278;52.110;6.050;2023-04-24T04:37:56;38.33;;;26.52;;
37411;SDS011;23278;52.110;6.050;2023-04-24T04:40:43;46.72;;;29.88;;
37411;SDS011;23278;52.110;6.050;2023-04-24T04:43:11;41.85;;;29.83;;
37411;SDS011;23278;52.110;6.050;2023-04-24T04:45:43;41.28;;;31.15;;
37411;SDS011;23278;52.110;6.050;2023-04-24T04:48:34;46.63;;;29.38;;
37411;SDS011;23278;52.110;6.050;2023-04-24T04:51:03;42.95;;;30.40;;
37411;SDS011;23278;52.110;6.050;2023-04-24T04:53:30;36.15;;;27.23;;
37411;SDS011;23278;52.110;6.050;2023-04-24T04:55:56;45.83;;;30.17;;
37411;SDS011;23278;52.110;6.050;2023-04-24T04:58:26;42.40;;;31.00;;
37411;SDS011;23278;52.110;6.050;2023-04-24T05:00:56;43.05;;;31.63;;
37411;SDS011;23278;52.110;6.050;2023-04-24T05:03:30;42.85;;;32.70;;
37411;SDS011;23278;52.110;6.050;2023-04-24T05:06:03;42.95;;;30.20;;
37411;SDS011;23278;52.110;6.050;2023-04-24T05:08:32;41.60;;;29.50;;
37411;SDS011;23278;52.110;6.050;2023-04-24T05:10:59;44.75;;;30.55;;
37411;SDS011;23278;52.110;6.050;2023-04-24T05:13:27;42.65;;;28.50;;
37411;SDS011;23278;52.110;6.050;2023-04-24T05:15:53;40.88;;;28.10;;
37411;SDS011;23278;52.110;6.050;2023-04-24T05:18:19;39.50;;;28.45;;
37411;SDS011;23278;52.110;6.050;2023-04-24T05:20:46;37.03;;;28.38;;
37411;SDS011;23278;52.110;6.050;2023-04-24T05:23:12;44.40;;;28.33;;
37411;SDS011;23278;52.110;6.050;2023-04-24T05:25:40;41.20;;;28.35;;
37411;SDS011;23278;52.110;6.050;2023-04-24T05:28:10;37.55;;;25.17;;
37411;SDS011;23278;52.110;6.050;2023-04-24T05:30:37;37.53;;;26.42;;
37411;SDS011;23278;52.110;6.050;2023-04-24T05:33:03;38.88;;;26.88;;
37411;SDS011;23278;52.110;6.050;2023-04-24T05:35:31;31.67;;;21.95;;
37411;SDS011;23278;52.110;6.050;2023-04-24T05:37:57;30.80;;;20.35;;
37411;SDS011;23278;52.110;6.050;2023-04-24T05:40:23;29.58;;;21.40;;
37411;SDS011;23278;52.110;6.050;2023-04-24T05:42:49;30.65;;;21.60;;
37411;SDS011;23278;52.110;6.050;2023-04-24T05:45:15;28.50;;;21.27;;
37411;SDS011;23278;52.110;6.050;2023-04-24T05:47:43;30.63;;;20.30;;
37411;SDS011;23278;52.110;6.050;2023-04-24T05:50:10;34.28;;;23.48;;
37411;SDS011;23278;52.110;6.050;2023-04-24T05:52:36;31.35;;;19.00;;
37411;SDS011;23278;52.110;6.050;2023-04-24T05:55:08;31.48;;;19.02;;
37411;SDS011;23278;52.110;6.050;2023-04-24T05:57:37;24.92;;;18.65;;
37411;SDS011;23278;52.110;6.050;2023-04-24T06:00:04;20.25;;;15.35;;
37411;SDS011;23278;52.110;6.050;2023-04-24T06:02:43;21.27;;;14.38;;
37411;SDS011;23278;52.110;6.050;2023-04-24T06:05:11;22.20;;;14.98;;
37411;SDS011;23278;52.110;6.050;2023-04-24T06:07:37;19.42;;;13.55;;
37411;SDS011;23278;52.110;6.050;2023-04-24T06:10:05;19.40;;;14.25;;
37411;SDS011;23278;52.110;6.050;2023-04-24T06:12:38;19.08;;;14.38;;
37411;SDS011;23278;52.110;6.050;2023-04-24T06:15:10;20.73;;;13.95;;
37411;SDS011;23278;52.110;6.050;2023-04-24T06:17:59;21.25;;;13.43;;
37411;SDS011;23278;52.110;6.050;2023-04-24T06:20:26;14.93;;;11.07;;
37411;SDS011;23278;52.110;6.050;2023-04-24T06:22:52;22.85;;;15.43;;
37411;SDS011;23278;52.110;6.050;2023-04-24T06:25:19;18.67;;;12.85;;
37411;SDS011;23278;52.110;6.050;2023-04-24T06:27:45;23.85;;;16.50;;
37411;SDS011;23278;52.110;6.050;2023-04-24T06:30:11;23.77;;;15.25;;
37411;SDS011;23278;52.110;6.050;2023-04-24T06:32:37;21.85;;;14.38;;
37411;SDS011;23278;52.110;6.050;2023-04-24T06:35:03;17.40;;;11.43;;
37411;SDS011;23278;52.110;6.050;2023-04-24T06:37:30;15.85;;;11.50;;
37411;SDS011;23278;52.110;6.050;2023-04-24T06:39:57;16.38;;;10.60;;
37411;SDS011;23278;52.110;6.050;2023-04-24T06:42:23;16.05;;;10.75;;
37411;SDS011;23278;52.110;6.050;2023-04-24T06:44:49;17.02;;;10.43;;
37411;SDS011;23278;52.110;6.050;2023-04-24T06:47:15;13.95;;;10.00;;
37411;SDS011;23278;52.110;6.050;2023-04-24T06:49:41;12.90;;;9.10;;
37411;SDS011;23278;52.110;6.050;2023-04-24T06:52:07;12.55;;;8.45;;
37411;SDS011;23278;52.110;6.050;2023-04-24T06:54:33;11.93;;;8.23;;
37411;SDS011;23278;52.110;6.050;2023-04-24T06:56:59;13.50;;;7.32;;
37411;SDS011;23278;52.110;6.050;2023-04-24T06:59:26;9.07;;;7.28;;
37411;SDS011;23278;52.110;6.050;2023-04-24T07:01:53;10.05;;;6.78;;
37411;SDS011;23278;52.110;6.050;2023-04-24T07:04:20;11.02;;;6.03;;
37411;SDS011;23278;52.110;6.050;2023-04-24T07:06:46;7.22;;;6.20;;
37411;SDS011;23278;52.110;6.050;2023-04-24T07:09:14;6.95;;;4.90;;
37411;SDS011;23278;52.110;6.050;2023-04-24T07:11:44;6.97;;;5.63;;
37411;SDS011;23278;52.110;6.050;2023-04-24T07:14:10;4.97;;;4.05;;
37411;SDS011;23278;52.110;6.050;2023-04-24T07:16:37;5.53;;;4.25;;
37411;SDS011;23278;52.110;6.050;2023-04-24T07:19:03;6.47;;;4.70;;
37411;SDS011;23278;52.110;6.050;2023-04-24T07:21:29;6.38;;;4.55;;
37411;SDS011;23278;52.110;6.050;2023-04-24T07:23:56;7.07;;;4.25;;
37411;SDS011;23278;52.110;6.050;2023-04-24T07:26:22;5.53;;;3.25;;
37411;SDS011;23278;52.110;6.050;2023-04-24T07:28:48;5.72;;;2.67;;
37411;SDS011;23278;52.110;6.050;2023-04-24T07:31:14;5.78;;;3.75;;
37411;SDS011;23278;52.110;6.050;2023-04-24T07:33:41;5.05;;;3.25;;
37411;SDS011;23278;52.110;6.050;2023-04-24T07:36:07;5.07;;;2.72;;
37411;SDS011;23278;52.110;6.050;2023-04-24T07:38:33;3.45;;;2.72;;
37411;SDS011;23278;52.110;6.050;2023-04-24T07:40:58;3.60;;;2.40;;
37411;SDS011;23278;52.110;6.050;2023-04-24T07:43:24;4.72;;;3.13;;
37411;SDS011;23278;52.110;6.050;2023-04-24T07:45:50;3.97;;;2.50;;
37411;SDS011;23278;52.110;6.050;2023-04-24T07:48:16;5.43;;;2.92;;
37411;SDS011;23278;52.110;6.050;2023-04-24T07:50:43;3.70;;;2.30;;
37411;SDS011;23278;52.110;6.050;2023-04-24T07:53:10;2.25;;;1.90;;
37411;SDS011;23278;52.110;6.050;2023-04-24T07:55:36;2.35;;;1.80;;
37411;SDS011;23278;52.110;6.050;2023-04-24T07:58:02;3.47;;;2.10;;
37411;SDS011;23278;52.110;6.050;2023-04-24T08:00:29;4.15;;;2.75;;
37411;SDS011;23278;52.110;6.050;2023-04-24T08:02:55;4.93;;;2.85;;
37411;SDS011;23278;52.110;6.050;2023-04-24T08:05:21;6.53;;;3.00;;
37411;SDS011;23278;52.110;6.050;2023-04-24T08:07:47;6.45;;;4.05;;
37411;SDS011;23278;52.110;6.050;2023-04-24T08:10:15;5.93;;;4.57;;
37411;SDS011;23278;52.110;6.050;2023-04-24T08:12:41;7.32;;;5.50;;
37411;SDS011;23278;52.110;6.050;2023-04-24T08:15:07;7.63;;;5.43;;
37411;SDS011;23278;52.110;6.050;2023-04-24T08:17:34;8.40;;;5.40;;
37411;SDS011;23278;52.110;6.050;2023-04-24T08:20:01;8.02;;;5.53;;
37411;SDS011;23278;52.110;6.050;2023-04-24T08:22:31;7.70;;;5.70;;
37411;SDS011;23278;52.110;6.050;2023-04-24T08:24:59;10.85;;;7.07;;
37411;SDS011;23278;52.110;6.050;2023-04-24T08:27:26;9.93;;;7.97;;
37411;SDS011;23278;52.110;6.050;2023-04-24T08:29:56;12.50;;;9.13;;
37411;SDS011;23278;52.110;6.050;2023-04-24T08:32:23;12.63;;;9.45;;
37411;SDS011;23278;52.110;6.050;2023-04-24T08:34:49;10.82;;;8.43;;
37411;SDS011;23278;52.110;6.050;2023-04-24T08:37:17;13.05;;;9.77;;
37411;SDS011;23278;52.110;6.050;2023-04-24T08:39:44;16.38;;;9.88;;
37411;SDS011;23278;52.110;6.050;2023-04-24T08:42:10;14.45;;;9.95;;
37411;SDS011;23278;52.110;6.050;2023-04-24T08:44:38;10.35;;;8.60;;
37411;SDS011;23278;52.110;6.050;2023-04-24T08:47:04;19.33;;;10.90;;
37411;SDS011;23278;52.110;6.050;2023-04-24T08:49:31;15.07;;;10.23;;
37411;SDS011;23278;52.110;6.050;2023-04-24T08:51:58;13.73;;;9.20;;
37411;SDS011;23278;52.110;6.050;2023-04-24T08:54:25;15.20;;;9.48;;
37411;SDS011;23278;52.110;6.050;2023-04-24T08:56:52;17.60;;;9.63;;
37411;SDS011;23278;52.110;6.050;2023-04-24T08:59:21;12.10;;;9.27;;
37411;SDS011;23278;52.110;6.050;2023-04-24T09:01:47;14.95;;;10.32;;
37411;SDS011;23278;52.110;6.050;2023-04-24T09:04:16;15.18;;;10.38;;
37411;SDS011;23278;52.110;6.050;2023-04-24T09:06:45;13.77;;;9.60;;
37411;SDS011;23278;52.110;6.050;2023-04-24T09:09:11;14.30;;;9.50;;
37411;SDS011;23278;52.110;6.050;2023-04-24T09:11:37;16.80;;;10.15;;
37411;SDS011;23278;52.110;6.050;2023-04-24T09:14:03;18.55;;;10.15;;
37411;SDS011;23278;52.110;6.050;2023-04-24T09:16:29;15.02;;;10.75;;
37411;SDS011;23278;52.110;6.050;2023-04-24T09:18:58;12.52;;;9.57;;
37411;SDS011;23278;52.110;6.050;2023-04-24T09:21:24;9.95;;;6.72;;
37411;SDS011;23278;52.110;6.050;2023-04-24T09:24:00;10.43;;;5.38;;
37411;SDS011;23278;52.110;6.050;2023-04-24T09:26:29;6.88;;;4.20;;
37411;SDS011;23278;52.110;6.050;2023-04-24T09:28:59;9.95;;;4.38;;
37411;SDS011;23278;52.110;6.050;2023-04-24T09:31:29;6.63;;;3.88;;
37411;SDS011;23278;52.110;6.050;2023-04-24T09:36:26;5.15;;;2.35;;
37411;SDS011;23278;52.110;6.050;2023-04-24T09:39:01;6.22;;;2.63;;
37411;SDS011;23278;52.110;6.050;2023-04-24T09:41:28;7.70;;;3.13;;
37411;SDS011;23278;52.110;6.050;2023-04-24T09:43:54;12.50;;;3.50;;
37411;SDS011;23278;52.110;6.050;2023-04-24T09:46:28;9.13;;;3.45;;
37411;SDS011;23278;52.110;6.050;2023-04-24T09:48:55;8.88;;;3.20;;
37411;SDS011;23278;52.110;6.050;2023-04-24T09:51:35;17.02;;;5.13;;
37411;SDS011;23278;52.110;6.050;2023-04-24T09:54:15;9.52;;;2.97;;
37411;SDS011;23278;52.110;6.050;2023-04-24T09:56:43;16.02;;;6.70;;
37411;SDS011;23278;52.110;6.050;2023-04-24T09:59:17;11.70;;;4.47;;
37411;SDS011;23278;52.110;6.050;2023-04-24T10:01:44;11.55;;;4.30;;
37411;SDS011;23278;52.110;6.050;2023-04-24T10:06:43;11.23;;;3.63;;
37411;SDS011;23278;52.110;6.050;2023-04-24T10:09:10;9.63;;;3.42;;
37411;SDS011;23278;52.110;6.050;2023-04-24T10:11:38;17.58;;;3.83;;
37411;SDS011;23278;52.110;6.050;2023-04-24T10:14:09;10.80;;;3.50;;
37411;SDS011;23278;52.110;6.050;2023-04-24T10:16:37;21.20;;;6.07;;
37411;SDS011;23278;52.110;6.050;2023-04-24T10:19:05;11.70;;;3.63;;
37411;SDS011;23278;52.110;6.050;2023-04-24T10:21:32;8.18;;;2.88;;
37411;SDS011;23278;52.110;6.050;2023-04-24T10:24:00;13.80;;;4.18;;
37411;SDS011;23278;52.110;6.050;2023-04-24T10:26:29;11.77;;;3.63;;
37411;SDS011;23278;52.110;6.050;2023-04-24T10:28:54;8.27;;;2.13;;
37411;SDS011;23278;52.110;6.050;2023-04-24T10:31:23;8.02;;;2.50;;
37411;SDS011;23278;52.110;6.050;2023-04-24T10:33:50;5.32;;;1.83;;
37411;SDS011;23278;52.110;6.050;2023-04-24T10:36:18;8.88;;;1.67;;
37411;SDS011;23278;52.110;6.050;2023-04-24T10:38:47;5.25;;;1.92;;
37411;SDS011;23278;52.110;6.050;2023-04-24T10:41:16;9.68;;;1.40;;
37411;SDS011;23278;52.110;6.050;2023-04-24T10:43:48;6.72;;;1.95;;
37411;SDS011;23278;52.110;6.050;2023-04-24T10:46:29;7.00;;;1.70;;
37411;SDS011;23278;52.110;6.050;2023-04-24T10:48:55;4.88;;;1.63;;
37411;SDS011;23278;52.110;6.050;2023-04-24T10:51:23;6.53;;;1.70;;
37411;SDS011;23278;52.110;6.050;2023-04-24T10:53:51;7.90;;;1.67;;
37411;SDS011;23278;52.110;6.050;2023-04-24T10:56:17;7.80;;;2.25;;
37411;SDS011;23278;52.110;6.050;2023-04-24T10:58:44;6.65;;;1.67;;
37411;SDS011;23278;52.110;6.050;2023-04-24T11:01:24;7.80;;;2.50;;
37411;SDS011;23278;52.110;6.050;2023-04-24T11:04:00;7.80;;;2.40;;
37411;SDS011;23278;52.110;6.050;2023-04-24T11:06:31;5.78;;;2.28;;
37411;SDS011;23278;52.110;6.050;2023-04-24T11:09:07;9.63;;;2.00;;
37411;SDS011;23278;52.110;6.050;2023-04-24T11:11:36;9.75;;;3.08;;
37411;SDS011;23278;52.110;6.050;2023-04-24T11:14:03;7.15;;;2.33;;
37411;SDS011;23278;52.110;6.050;2023-04-24T11:16:36;10.93;;;2.10;;
37411;SDS011;23278;52.110;6.050;2023-04-24T11:19:05;13.18;;;1.63;;
37411;SDS011;23278;52.110;6.050;2023-04-24T11:24:24;4.85;;;1.60;;
37411;SDS011;23278;52.110;6.050;2023-04-24T11:26:57;5.07;;;1.27;;
37411;SDS011;23278;52.110;6.050;2023-04-24T11:34:54;4.22;;;1.13;;
37411;SDS011;23278;52.110;6.050;2023-04-24T11:37:42;6.10;;;1.27;;
37411;SDS011;23278;52.110;6.050;2023-04-24T11:40:12;3.55;;;1.17;;
37411;SDS011;23278;52.110;6.050;2023-04-24T11:42:41;6.75;;;1.45;;
37411;SDS011;23278;52.110;6.050;2023-04-24T11:47:39;4.13;;;1.15;;
37411;SDS011;23278;52.110;6.050;2023-04-24T11:50:10;3.70;;;1.02;;
37411;SDS011;23278;52.110;6.050;2023-04-24T11:52:38;3.70;;;1.95;;
37411;SDS011;23278;52.110;6.050;2023-04-24T11:57:51;2.85;;;1.58;;
37411;SDS011;23278;52.110;6.050;2023-04-24T12:02:49;3.00;;;0.93;;
37411;SDS011;23278;52.110;6.050;2023-04-24T12:05:19;7.10;;;0.85;;
37411;SDS011;23278;52.110;6.050;2023-04-24T12:07:46;1.52;;;1.00;;
37411;SDS011;23278;52.110;6.050;2023-04-24T12:10:12;1.88;;;0.70;;
37411;SDS011;23278;52.110;6.050;2023-04-24T12:12:38;5.85;;;0.80;;
37411;SDS011;23278;52.110;6.050;2023-04-24T12:15:07;5.60;;;0.88;;
37411;SDS011;23278;52.110;6.050;2023-04-24T12:17:34;2.30;;;0.80;;
37411;SDS011;23278;52.110;6.050;2023-04-24T12:20:02;4.15;;;1.67;;
37411;SDS011;23278;52.110;6.050;2023-04-24T12:25:31;3.47;;;0.95;;
37411;SDS011;23278;52.110;6.050;2023-04-24T12:30:30;2.22;;;0.60;;
37411;SDS011;23278;52.110;6.050;2023-04-24T12:32:58;1.02;;;0.50;;
37411;SDS011;23278;52.110;6.050;2023-04-24T12:35:27;4.40;;;0.82;;
37411;SDS011;23278;52.110;6.050;2023-04-24T12:37:55;1.75;;;0.60;;
37411;SDS011;23278;52.110;6.050;2023-04-24T12:40:21;4.20;;;0.70;;
37411;SDS011;23278;52.110;6.050;2023-04-24T12:42:48;2.10;;;0.63;;
37411;SDS011;23278;52.110;6.050;2023-04-24T12:45:15;2.20;;;1.67;;
37411;SDS011;23278;52.110;6.050;2023-04-24T12:47:43;2.17;;;0.60;;
37411;SDS011;23278;52.110;6.050;2023-04-24T12:50:13;2.60;;;0.80;;
37411;SDS011;23278;52.110;6.050;2023-04-24T12:52:40;4.75;;;0.75;;
37411;SDS011;23278;52.110;6.050;2023-04-24T12:55:07;2.53;;;0.90;;
37411;SDS011;23278;52.110;6.050;2023-04-24T12:57:34;1.00;;;0.60;;
37411;SDS011;23278;52.110;6.050;2023-04-24T13:00:02;1.17;;;0.60;;
37411;SDS011;23278;52.110;6.050;2023-04-24T13:02:31;2.97;;;0.50;;
37411;SDS011;23278;52.110;6.050;2023-04-24T13:04:57;3.83;;;0.77;;
37411;SDS011;23278;52.110;6.050;2023-04-24T13:07:24;1.88;;;0.70;;
37411;SDS011;23278;52.110;6.050;2023-04-24T13:09:51;2.83;;;0.73;;
37411;SDS011;23278;52.110;6.050;2023-04-24T13:12:17;3.33;;;0.43;;
37411;SDS011;23278;52.110;6.050;2023-04-24T13:14:44;2.35;;;0.50;;
37411;SDS011;23278;52.110;6.050;2023-04-24T13:17:10;1.38;;;0.55;;
37411;SDS011;23278;52.110;6.050;2023-04-24T13:19:38;1.33;;;0.50;;
37411;SDS011;23278;52.110;6.050;2023-04-24T13:22:05;2.58;;;0.60;;
37411;SDS011;23278;52.110;6.050;2023-04-24T13:24:32;3.47;;;0.55;;
37411;SDS011;23278;52.110;6.050;2023-04-24T13:26:58;2.85;;;0.60;;
37411;SDS011;23278;52.110;6.050;2023-04-24T13:29:25;3.45;;;0.82;;
37411;SDS011;23278;52.110;6.050;2023-04-24T13:31:51;2.55;;;0.52;;
37411;SDS011;23278;52.110;6.050;2023-04-24T13:34:20;6.57;;;1.95;;
37411;SDS011;23278;52.110;6.050;2023-04-24T13:36:46;6.93;;;1.23;;
37411;SDS011;23278;52.110;6.050;2023-04-24T13:39:12;4.90;;;0.90;;
37411;SDS011;23278;52.110;6.050;2023-04-24T13:41:38;3.17;;;1.08;;
37411;SDS011;23278;52.110;6.050;2023-04-24T13:44:05;4.30;;;0.77;;
37411;SDS011;23278;52.110;6.050;2023-04-24T13:46:31;6.63;;;0.70;;
37411;SDS011;23278;52.110;6.050;2023-04-24T13:48:58;3.70;;;0.90;;
37411;SDS011;23278;52.110;6.050;2023-04-24T13:51:27;6.25;;;1.30;;
37411;SDS011;23278;52.110;6.050;2023-04-24T13:53:53;6.68;;;1.10;;
37411;SDS011;23278;52.110;6.050;2023-04-24T13:56:20;4.65;;;1.00;;
37411;SDS011;23278;52.110;6.050;2023-04-24T13:58:47;3.72;;;1.05;;
37411;SDS011;23278;52.110;6.050;2023-04-24T14:01:13;6.53;;;1.35;;
37411;SDS011;23278;52.110;6.050;2023-04-24T14:03:41;2.65;;;0.80;;
37411;SDS011;23278;52.110;6.050;2023-04-24T14:06:08;8.15;;;1.92;;
37411;SDS011;23278;52.110;6.050;2023-04-24T14:08:34;5.22;;;1.48;;
37411;SDS011;23278;52.110;6.050;2023-04-24T14:11:00;4.47;;;1.27;;
37411;SDS011;23278;52.110;6.050;2023-04-24T14:13:26;10.05;;;1.42;;
37411;SDS011;23278;52.110;6.050;2023-04-24T14:15:53;7.63;;;1.48;;
37411;SDS011;23278;52.110;6.050;2023-04-24T14:18:19;5.15;;;1.45;;
37411;SDS011;23278;52.110;6.050;2023-04-24T14:20:45;6.90;;;1.35;;
37411;SDS011;23278;52.110;6.050;2023-04-24T14:23:11;7.05;;;1.20;;
37411;SDS011;23278;52.110;6.050;2023-04-24T14:25:37;6.32;;;1.40;;
37411;SDS011;23278;52.110;6.050;2023-04-24T14:28:03;7.25;;;1.50;;
37411;SDS011;23278;52.110;6.050;2023-04-24T14:30:29;8.10;;;1.20;;
37411;SDS011;23278;52.110;6.050;2023-04-24T14:32:55;6.93;;;1.48;;
37411;SDS011;23278;52.110;6.050;2023-04-24T14:35:21;5.35;;;1.55;;
37411;SDS011;23278;52.110;6.050;2023-04-24T14:37:47;5.80;;;1.77;;
37411;SDS011;23278;52.110;6.050;2023-04-24T14:40:14;6.85;;;1.20;;
37411;SDS011;23278;52.110;6.050;2023-04-24T14:42:40;4.32;;;1.02;;
37411;SDS011;23278;52.110;6.050;2023-04-24T14:45:06;5.30;;;1.40;;
37411;SDS011;23278;52.110;6.050;2023-04-24T14:47:33;7.00;;;1.20;;
37411;SDS011;23278;52.110;6.050;2023-04-24T14:49:59;5.88;;;1.63;;
37411;SDS011;23278;52.110;6.050;2023-04-24T14:52:25;5.30;;;1.45;;
37411;SDS011;23278;52.110;6.050;2023-04-24T14:54:51;11.30;;;1.35;;
37411;SDS011;23278;52.110;6.050;2023-04-24T14:57:17;4.20;;;1.48;;
37411;SDS011;23278;52.110;6.050;2023-04-24T14:59:43;8.25;;;1.58;;
37411;SDS011;23278;52.110;6.050;2023-04-24T15:02:09;6.40;;;1.15;;
37411;SDS011;23278;52.110;6.050;2023-04-24T15:04:35;7.90;;;1.08;;
37411;SDS011;23278;52.110;6.050;2023-04-24T15:07:01;6.00;;;1.25;;
37411;SDS011;23278;52.110;6.050;2023-04-24T15:09:27;6.40;;;1.75;;